sensor_id;sensor_type;location;lat;lon;timestamp;P1;durP1;ratioP1;P2;durP2;ratioP2
12435;SDS011;6282;51.440;6.938;2023-06-26T00:02:15;3.10;;;2.80;;
12435;SDS011;6282;51.440;6.938;2023-06-26T00:04:43;3.25;;;2.95;;
12435;SDS011;6282;51.440;6.938;2023-06-26T00:07:10;3.00;;;2.75;;
12435;SDS011;6282;51.440;6.938;2023-06-26T00:09:37;4.18;;;3.55;;
12435;SDS011;6282;51.440;6.938;2023-06-26T00:12:04;3.25;;;2.95;;
12435;SDS011;6282;51.440;6.938;2023-06-26T00:14:31;3.90;;;3.47;;
12435;SDS011;6282;51.440;6.938;2023-06-26T00:16:58;3.20;;;2.90;;
12435;SDS011;6282;51.440;6.938;2023-06-26T00:19:25;3.50;;;2.80;;
12435;SDS011;6282;51.440;6.938;2023-06-26T00:21:53;3.97;;;2.85;;
12435;SDS011;6282;51.440;6.938;2023-06-26T00:24:20;3.65;;;3.28;;
12435;SDS011;6282;51.440;6.938;2023-06-26T00:26:47;3.35;;;3.08;;
12435;SDS011;6282;51.440;6.938;2023-06-26T00:29:14;3.10;;;2.80;;
12435;SDS011;6282;51.440;6.938;2023-06-26T00:31:41;3.58;;;2.97;;
12435;SDS011;6282;51.440;6.938;2023-06-26T00:34:08;3.17;;;2.80;;
12435;SDS011;6282;51.440;6.938;2023-06-26T00:36:35;4.72;;;3.15;;
12435;SDS011;6282;51.440;6.938;2023-06-26T00:39:03;3.75;;;2.90;;
12435;SDS011;6282;51.440;6.938;2023-06-26T00:41:30;4.20;;;2.97;;
12435;SDS011;6282;51.440;6.938;2023-06-26T00:43:57;2.97;;;2.70;;
12435;SDS011;6282;51.440;6.938;2023-06-26T00:46:24;3.30;;;2.95;;
12435;SDS011;6282;51.440;6.938;2023-06-26T00:48:52;3.83;;;2.97;;
12435;SDS011;6282;51.440;6.938;2023-06-26T00:51:20;4.15;;;3.22;;
12435;SDS011;6282;51.440;6.938;2023-06-26T00:53:47;3.45;;;3.15;;
12435;SDS011;6282;51.440;6.938;2023-06-26T00:56:16;3.47;;;2.97;;
12435;SDS011;6282;51.440;6.938;2023-06-26T00:58:44;3.28;;;2.90;;
12435;SDS011;6282;51.440;6.938;2023-06-26T01:01:11;5.35;;;2.75;;
12435;SDS011;6282;51.440;6.938;2023-06-26T01:03:41;3.30;;;3.00;;
12435;SDS011;6282;51.440;6.938;2023-06-26T01:06:08;3.60;;;3.00;;
12435;SDS011;6282;51.440;6.938;2023-06-26T01:08:36;3.17;;;2.88;;
12435;SDS011;6282;51.440;6.938;2023-06-26T01:11:04;4.18;;;3.10;;
12435;SDS011;6282;51.440;6.938;2023-06-26T01:13:32;3.13;;;2.85;;
12435;SDS011;6282;51.440;6.938;2023-06-26T01:16:00;4.30;;;3.25;;
12435;SDS011;6282;51.440;6.938;2023-06-26T01:18:29;3.40;;;3.10;;
12435;SDS011;6282;51.440;6.938;2023-06-26T01:20:58;3.25;;;2.95;;
12435;SDS011;6282;51.440;6.938;2023-06-26T01:23:30;2.88;;;2.58;;
12435;SDS011;6282;51.440;6.938;2023-06-26T01:28:53;3.20;;;2.90;;
12435;SDS011;6282;51.440;6.938;2023-06-26T01:31:22;3.60;;;3.08;;
12435;SDS011;6282;51.440;6.938;2023-06-26T01:33:50;2.85;;;2.60;;
12435;SDS011;6282;51.440;6.938;2023-06-26T01:36:17;3.15;;;2.83;;
12435;SDS011;6282;51.440;6.938;2023-06-26T01:38:44;3.50;;;3.17;;
12435;SDS011;6282;51.440;6.938;2023-06-26T01:41:11;3.50;;;3.20;;
12435;SDS011;6282;51.440;6.938;2023-06-26T01:43:43;3.72;;;2.72;;
12435;SDS011;6282;51.440;6.938;2023-06-26T01:46:24;4.38;;;3.00;;
12435;SDS011;6282;51.440;6.938;2023-06-26T01:48:55;3.08;;;2.75;;
12435;SDS011;6282;51.440;6.938;2023-06-26T01:51:27;3.10;;;2.80;;
12435;SDS011;6282;51.440;6.938;2023-06-26T01:53:58;4.10;;;3.03;;
12435;SDS011;6282;51.440;6.938;2023-06-26T01:56:26;3.70;;;3.03;;
12435;SDS011;6282;51.440;6.938;2023-06-26T01:58:56;5.05;;;3.10;;
12435;SDS011;6282;51.440;6.938;2023-06-26T02:01:26;4.20;;;2.95;;
12435;SDS011;6282;51.440;6.938;2023-06-26T02:03:52;4.00;;;2.90;;
12435;SDS011;6282;51.440;6.938;2023-06-26T02:06:19;3.85;;;3.10;;
12435;SDS011;6282;51.440;6.938;2023-06-26T02:08:46;3.20;;;2.90;;
12435;SDS011;6282;51.440;6.938;2023-06-26T02:11:13;3.28;;;2.97;;
12435;SDS011;6282;51.440;6.938;2023-06-26T02:13:40;3.67;;;3.20;;
12435;SDS011;6282;51.440;6.938;2023-06-26T02:16:08;3.10;;;2.80;;
12435;SDS011;6282;51.440;6.938;2023-06-26T02:18:36;4.53;;;2.97;;
12435;SDS011;6282;51.440;6.938;2023-06-26T02:21:03;2.85;;;2.60;;
12435;SDS011;6282;51.440;6.938;2023-06-26T02:23:30;3.38;;;2.85;;
12435;SDS011;6282;51.440;6.938;2023-06-26T02:25:57;3.22;;;2.90;;
12435;SDS011;6282;51.440;6.938;2023-06-26T02:28:24;3.58;;;3.00;;
12435;SDS011;6282;51.440;6.938;2023-06-26T02:30:51;4.45;;;3.38;;
12435;SDS011;6282;51.440;6.938;2023-06-26T02:33:19;4.97;;;2.83;;
12435;SDS011;6282;51.440;6.938;2023-06-26T02:35:46;3.45;;;3.10;;
12435;SDS011;6282;51.440;6.938;2023-06-26T02:38:15;3.92;;;3.20;;
12435;SDS011;6282;51.440;6.938;2023-06-26T02:40:42;4.22;;;3.00;;
12435;SDS011;6282;51.440;6.938;2023-06-26T02:43:09;3.40;;;3.00;;
12435;SDS011;6282;51.440;6.938;2023-06-26T02:45:35;3.70;;;3.30;;
12435;SDS011;6282;51.440;6.938;2023-06-26T02:48:02;3.28;;;2.97;;
12435;SDS011;6282;51.440;6.938;2023-06-26T02:50:31;3.15;;;2.85;;
12435;SDS011;6282;51.440;6.938;2023-06-26T02:52:58;4.50;;;2.95;;
12435;SDS011;6282;51.440;6.938;2023-06-26T02:55:25;3.85;;;2.97;;
12435;SDS011;6282;51.440;6.938;2023-06-26T02:57:51;3.78;;;2.70;;
12435;SDS011;6282;51.440;6.938;2023-06-26T03:00:18;3.83;;;3.33;;
12435;SDS011;6282;51.440;6.938;2023-06-26T03:02:45;3.42;;;3.13;;
12435;SDS011;6282;51.440;6.938;2023-06-26T03:05:13;3.17;;;2.85;;
12435;SDS011;6282;51.440;6.938;2023-06-26T03:07:41;4.65;;;3.42;;
12435;SDS011;6282;51.440;6.938;2023-06-26T03:10:08;3.90;;;3.20;;
12435;SDS011;6282;51.440;6.938;2023-06-26T03:12:35;3.80;;;2.88;;
12435;SDS011;6282;51.440;6.938;2023-06-26T03:15:02;2.90;;;2.60;;
12435;SDS011;6282;51.440;6.938;2023-06-26T03:17:29;4.05;;;3.35;;
12435;SDS011;6282;51.440;6.938;2023-06-26T03:19:56;3.75;;;3.05;;
12435;SDS011;6282;51.440;6.938;2023-06-26T03:22:23;3.97;;;3.30;;
12435;SDS011;6282;51.440;6.938;2023-06-26T03:24:51;4.18;;;3.20;;
12435;SDS011;6282;51.440;6.938;2023-06-26T03:27:18;3.63;;;3.30;;
12435;SDS011;6282;51.440;6.938;2023-06-26T03:29:45;5.43;;;3.45;;
12435;SDS011;6282;51.440;6.938;2023-06-26T03:32:12;3.67;;;3.22;;
12435;SDS011;6282;51.440;6.938;2023-06-26T03:34:39;3.33;;;3.03;;
12435;SDS011;6282;51.440;6.938;2023-06-26T03:37:06;3.50;;;3.20;;
12435;SDS011;6282;51.440;6.938;2023-06-26T03:39:33;4.03;;;3.50;;
12435;SDS011;6282;51.440;6.938;2023-06-26T03:42:01;4.03;;;3.42;;
12435;SDS011;6282;51.440;6.938;2023-06-26T03:44:28;5.13;;;2.90;;
12435;SDS011;6282;51.440;6.938;2023-06-26T03:46:55;4.00;;;3.45;;
12435;SDS011;6282;51.440;6.938;2023-06-26T03:49:22;4.20;;;3.25;;
12435;SDS011;6282;51.440;6.938;2023-06-26T03:51:48;4.18;;;3.50;;
12435;SDS011;6282;51.440;6.938;2023-06-26T03:54:15;4.88;;;3.60;;
12435;SDS011;6282;51.440;6.938;2023-06-26T03:56:42;5.05;;;4.05;;
12435;SDS011;6282;51.440;6.938;2023-06-26T03:59:11;4.85;;;3.78;;
12435;SDS011;6282;51.440;6.938;2023-06-26T04:01:37;4.07;;;3.28;;
12435;SDS011;6282;51.440;6.938;2023-06-26T04:04:04;5.32;;;3.42;;
12435;SDS011;6282;51.440;6.938;2023-06-26T04:06:31;4.22;;;3.28;;
12435;SDS011;6282;51.440;6.938;2023-06-26T04:08:58;3.83;;;3.35;;
12435;SDS011;6282;51.440;6.938;2023-06-26T04:11:25;4.45;;;3.90;;
12435;SDS011;6282;51.440;6.938;2023-06-26T04:13:52;3.47;;;3.15;;
12435;SDS011;6282;51.440;6.938;2023-06-26T04:16:21;4.28;;;3.15;;
12435;SDS011;6282;51.440;6.938;2023-06-26T04:18:50;3.60;;;3.20;;
12435;SDS011;6282;51.440;6.938;2023-06-26T04:21:17;4.35;;;3.03;;
12435;SDS011;6282;51.440;6.938;2023-06-26T04:23:45;3.95;;;2.70;;
12435;SDS011;6282;51.440;6.938;2023-06-26T04:26:12;4.63;;;3.33;;
12435;SDS011;6282;51.440;6.938;2023-06-26T04:28:39;3.33;;;3.03;;
12435;SDS011;6282;51.440;6.938;2023-06-26T04:31:08;3.55;;;3.08;;
12435;SDS011;6282;51.440;6.938;2023-06-26T04:33:36;5.20;;;3.00;;
12435;SDS011;6282;51.440;6.938;2023-06-26T04:36:03;3.83;;;2.95;;
12435;SDS011;6282;51.440;6.938;2023-06-26T04:38:31;3.60;;;2.90;;
12435;SDS011;6282;51.440;6.938;2023-06-26T04:40:59;3.20;;;2.75;;
12435;SDS011;6282;51.440;6.938;2023-06-26T04:43:26;3.60;;;2.80;;
12435;SDS011;6282;51.440;6.938;2023-06-26T04:45:53;4.95;;;3.10;;
12435;SDS011;6282;51.440;6.938;2023-06-26T04:48:20;5.55;;;3.35;;
12435;SDS011;6282;51.440;6.938;2023-06-26T04:50:48;4.15;;;3.25;;
12435;SDS011;6282;51.440;6.938;2023-06-26T04:53:19;4.63;;;3.17;;
12435;SDS011;6282;51.440;6.938;2023-06-26T04:55:46;3.97;;;2.90;;
12435;SDS011;6282;51.440;6.938;2023-06-26T04:58:13;4.65;;;2.97;;
12435;SDS011;6282;51.440;6.938;2023-06-26T05:00:41;5.18;;;3.40;;
12435;SDS011;6282;51.440;6.938;2023-06-26T05:03:08;3.88;;;3.47;;
12435;SDS011;6282;51.440;6.938;2023-06-26T05:05:35;4.05;;;3.53;;
12435;SDS011;6282;51.440;6.938;2023-06-26T05:08:14;3.80;;;3.38;;
12435;SDS011;6282;51.440;6.938;2023-06-26T05:10:41;3.47;;;3.13;;
12435;SDS011;6282;51.440;6.938;2023-06-26T05:13:09;4.50;;;3.22;;
12435;SDS011;6282;51.440;6.938;2023-06-26T05:15:36;6.97;;;3.65;;
12435;SDS011;6282;51.440;6.938;2023-06-26T05:18:03;3.95;;;3.42;;
12435;SDS011;6282;51.440;6.938;2023-06-26T05:20:31;4.95;;;3.85;;
12435;SDS011;6282;51.440;6.938;2023-06-26T05:22:58;4.10;;;3.60;;
12435;SDS011;6282;51.440;6.938;2023-06-26T05:25:26;4.22;;;3.45;;
12435;SDS011;6282;51.440;6.938;2023-06-26T05:27:55;4.25;;;3.00;;
12435;SDS011;6282;51.440;6.938;2023-06-26T05:30:23;4.07;;;3.42;;
12435;SDS011;6282;51.440;6.938;2023-06-26T05:32:51;3.13;;;2.83;;
12435;SDS011;6282;51.440;6.938;2023-06-26T05:35:19;4.40;;;2.97;;
12435;SDS011;6282;51.440;6.938;2023-06-26T05:37:47;3.72;;;2.63;;
12435;SDS011;6282;51.440;6.938;2023-06-26T05:40:16;4.53;;;3.22;;
12435;SDS011;6282;51.440;6.938;2023-06-26T05:42:45;4.53;;;3.05;;
12435;SDS011;6282;51.440;6.938;2023-06-26T05:45:12;4.13;;;2.97;;
12435;SDS011;6282;51.440;6.938;2023-06-26T05:47:39;4.47;;;2.80;;
12435;SDS011;6282;51.440;6.938;2023-06-26T05:50:07;4.30;;;3.00;;
12435;SDS011;6282;51.440;6.938;2023-06-26T05:52:35;4.43;;;3.08;;
12435;SDS011;6282;51.440;6.938;2023-06-26T05:55:04;3.60;;;2.63;;
12435;SDS011;6282;51.440;6.938;2023-06-26T05:57:31;4.78;;;2.90;;
12435;SDS011;6282;51.440;6.938;2023-06-26T06:00:01;3.90;;;2.80;;
12435;SDS011;6282;51.440;6.938;2023-06-26T06:02:31;4.72;;;2.70;;
12435;SDS011;6282;51.440;6.938;2023-06-26T06:04:58;7.18;;;3.08;;
12435;SDS011;6282;51.440;6.938;2023-06-26T06:07:26;2.67;;;2.35;;
12435;SDS011;6282;51.440;6.938;2023-06-26T06:09:53;4.20;;;3.13;;
12435;SDS011;6282;51.440;6.938;2023-06-26T06:12:19;4.47;;;2.42;;
12435;SDS011;6282;51.440;6.938;2023-06-26T06:14:47;3.65;;;2.50;;
12435;SDS011;6282;51.440;6.938;2023-06-26T06:17:15;3.85;;;2.50;;
12435;SDS011;6282;51.440;6.938;2023-06-26T06:19:42;3.75;;;2.75;;
12435;SDS011;6282;51.440;6.938;2023-06-26T06:22:09;4.00;;;2.90;;
12435;SDS011;6282;51.440;6.938;2023-06-26T06:24:36;4.22;;;3.08;;
12435;SDS011;6282;51.440;6.938;2023-06-26T06:27:03;5.28;;;2.80;;
12435;SDS011;6282;51.440;6.938;2023-06-26T06:29:30;4.15;;;2.92;;
12435;SDS011;6282;51.440;6.938;2023-06-26T06:31:57;3.83;;;2.60;;
12435;SDS011;6282;51.440;6.938;2023-06-26T06:34:25;3.25;;;2.50;;
12435;SDS011;6282;51.440;6.938;2023-06-26T06:36:52;6.78;;;2.78;;
12435;SDS011;6282;51.440;6.938;2023-06-26T06:39:19;3.17;;;2.50;;
12435;SDS011;6282;51.440;6.938;2023-06-26T06:41:46;6.13;;;2.72;;
12435;SDS011;6282;51.440;6.938;2023-06-26T06:44:13;4.82;;;2.50;;
12435;SDS011;6282;51.440;6.938;2023-06-26T06:46:40;6.50;;;3.08;;
12435;SDS011;6282;51.440;6.938;2023-06-26T06:49:07;8.25;;;2.95;;
12435;SDS011;6282;51.440;6.938;2023-06-26T06:51:36;4.40;;;3.10;;
12435;SDS011;6282;51.440;6.938;2023-06-26T06:54:03;4.70;;;3.10;;
12435;SDS011;6282;51.440;6.938;2023-06-26T06:56:30;3.33;;;2.58;;
12435;SDS011;6282;51.440;6.938;2023-06-26T06:58:57;4.13;;;3.03;;
12435;SDS011;6282;51.440;6.938;2023-06-26T07:01:24;4.90;;;3.13;;
12435;SDS011;6282;51.440;6.938;2023-06-26T07:03:52;5.28;;;2.88;;
12435;SDS011;6282;51.440;6.938;2023-06-26T07:06:18;4.55;;;2.67;;
12435;SDS011;6282;51.440;6.938;2023-06-26T07:08:47;4.82;;;2.53;;
12435;SDS011;6282;51.440;6.938;2023-06-26T07:11:13;4.43;;;2.63;;
12435;SDS011;6282;51.440;6.938;2023-06-26T07:13:40;5.35;;;2.80;;
12435;SDS011;6282;51.440;6.938;2023-06-26T07:16:07;5.25;;;2.80;;
12435;SDS011;6282;51.440;6.938;2023-06-26T07:18:37;4.65;;;2.92;;
12435;SDS011;6282;51.440;6.938;2023-06-26T07:21:04;4.47;;;3.15;;
12435;SDS011;6282;51.440;6.938;2023-06-26T07:23:31;5.35;;;2.85;;
12435;SDS011;6282;51.440;6.938;2023-06-26T07:25:59;7.30;;;2.95;;
12435;SDS011;6282;51.440;6.938;2023-06-26T07:28:26;5.90;;;2.97;;
12435;SDS011;6282;51.440;6.938;2023-06-26T07:30:53;4.30;;;2.97;;
12435;SDS011;6282;51.440;6.938;2023-06-26T07:33:20;4.40;;;2.47;;
12435;SDS011;6282;51.440;6.938;2023-06-26T07:35:46;3.03;;;2.72;;
12435;SDS011;6282;51.440;6.938;2023-06-26T07:38:13;3.90;;;3.22;;
12435;SDS011;6282;51.440;6.938;2023-06-26T07:40:40;4.28;;;2.95;;
12435;SDS011;6282;51.440;6.938;2023-06-26T07:43:09;4.45;;;3.00;;
12435;SDS011;6282;51.440;6.938;2023-06-26T07:45:35;4.18;;;2.92;;
12435;SDS011;6282;51.440;6.938;2023-06-26T07:48:03;5.53;;;3.30;;
12435;SDS011;6282;51.440;6.938;2023-06-26T07:50:30;3.97;;;3.08;;
12435;SDS011;6282;51.440;6.938;2023-06-26T07:52:56;4.57;;;2.60;;
12435;SDS011;6282;51.440;6.938;2023-06-26T07:55:24;4.93;;;3.08;;
12435;SDS011;6282;51.440;6.938;2023-06-26T07:57:51;3.30;;;2.88;;
12435;SDS011;6282;51.440;6.938;2023-06-26T08:00:21;4.07;;;2.80;;
12435;SDS011;6282;51.440;6.938;2023-06-26T08:02:48;3.72;;;2.95;;
12435;SDS011;6282;51.440;6.938;2023-06-26T08:05:15;6.20;;;3.42;;
12435;SDS011;6282;51.440;6.938;2023-06-26T08:07:42;7.47;;;3.60;;
12435;SDS011;6282;51.440;6.938;2023-06-26T08:10:09;5.88;;;3.53;;
12435;SDS011;6282;51.440;6.938;2023-06-26T08:12:36;4.72;;;3.20;;
12435;SDS011;6282;51.440;6.938;2023-06-26T08:15:05;4.63;;;3.13;;
12435;SDS011;6282;51.440;6.938;2023-06-26T08:17:34;6.20;;;3.35;;
12435;SDS011;6282;51.440;6.938;2023-06-26T08:20:02;5.03;;;3.10;;
12435;SDS011;6282;51.440;6.938;2023-06-26T08:22:30;4.60;;;3.00;;
12435;SDS011;6282;51.440;6.938;2023-06-26T08:24:57;6.80;;;3.80;;
12435;SDS011;6282;51.440;6.938;2023-06-26T08:27:24;5.45;;;3.20;;
12435;SDS011;6282;51.440;6.938;2023-06-26T08:29:51;6.55;;;3.22;;
12435;SDS011;6282;51.440;6.938;2023-06-26T08:32:18;6.38;;;3.17;;
12435;SDS011;6282;51.440;6.938;2023-06-26T08:34:46;6.28;;;3.17;;
12435;SDS011;6282;51.440;6.938;2023-06-26T08:37:13;4.38;;;3.00;;
12435;SDS011;6282;51.440;6.938;2023-06-26T08:39:40;6.05;;;2.70;;
12435;SDS011;6282;51.440;6.938;2023-06-26T08:42:07;5.68;;;3.22;;
12435;SDS011;6282;51.440;6.938;2023-06-26T08:44:34;6.47;;;2.80;;
12435;SDS011;6282;51.440;6.938;2023-06-26T08:47:01;5.38;;;2.70;;
12435;SDS011;6282;51.440;6.938;2023-06-26T08:49:30;3.88;;;2.03;;
12435;SDS011;6282;51.440;6.938;2023-06-26T08:52:06;3.97;;;2.10;;
12435;SDS011;6282;51.440;6.938;2023-06-26T08:54:40;8.02;;;2.50;;
12435;SDS011;6282;51.440;6.938;2023-06-26T08:57:12;3.38;;;2.28;;
12435;SDS011;6282;51.440;6.938;2023-06-26T08:59:43;7.13;;;3.10;;
12435;SDS011;6282;51.440;6.938;2023-06-26T09:02:10;5.50;;;2.28;;
12435;SDS011;6282;51.440;6.938;2023-06-26T09:04:37;3.67;;;2.20;;
12435;SDS011;6282;51.440;6.938;2023-06-26T09:07:06;6.30;;;3.03;;
12435;SDS011;6282;51.440;6.938;2023-06-26T09:09:34;3.13;;;2.60;;
12435;SDS011;6282;51.440;6.938;2023-06-26T09:12:02;3.70;;;2.30;;
12435;SDS011;6282;51.440;6.938;2023-06-26T09:14:29;3.83;;;2.42;;
12435;SDS011;6282;51.440;6.938;2023-06-26T09:16:56;3.92;;;2.33;;
12435;SDS011;6282;51.440;6.938;2023-06-26T09:19:23;6.22;;;3.15;;
12435;SDS011;6282;51.440;6.938;2023-06-26T09:21:50;4.22;;;2.28;;
12435;SDS011;6282;51.440;6.938;2023-06-26T09:24:19;4.63;;;2.72;;
12435;SDS011;6282;51.440;6.938;2023-06-26T09:26:49;6.07;;;2.00;;
12435;SDS011;6282;51.440;6.938;2023-06-26T09:29:17;3.00;;;2.40;;
12435;SDS011;6282;51.440;6.938;2023-06-26T09:31:45;3.13;;;2.38;;
12435;SDS011;6282;51.440;6.938;2023-06-26T09:34:12;3.42;;;2.30;;
12435;SDS011;6282;51.440;6.938;2023-06-26T09:36:39;4.65;;;2.30;;
12435;SDS011;6282;51.440;6.938;2023-06-26T09:39:07;6.45;;;2.28;;
12435;SDS011;6282;51.440;6.938;2023-06-26T09:41:38;4.15;;;2.33;;
12435;SDS011;6282;51.440;6.938;2023-06-26T09:44:06;5.00;;;2.38;;
12435;SDS011;6282;51.440;6.938;2023-06-26T09:46:37;3.45;;;1.83;;
12435;SDS011;6282;51.440;6.938;2023-06-26T09:49:05;3.40;;;2.00;;
12435;SDS011;6282;51.440;6.938;2023-06-26T09:51:33;4.68;;;2.05;;
12435;SDS011;6282;51.440;6.938;2023-06-26T09:54:01;3.80;;;2.25;;
12435;SDS011;6282;51.440;6.938;2023-06-26T09:56:29;3.28;;;2.58;;
12435;SDS011;6282;51.440;6.938;2023-06-26T09:58:59;4.30;;;2.35;;
12435;SDS011;6282;51.440;6.938;2023-06-26T10:01:27;3.35;;;2.00;;
12435;SDS011;6282;51.440;6.938;2023-06-26T10:03:56;3.20;;;2.10;;
12435;SDS011;6282;51.440;6.938;2023-06-26T10:06:24;3.63;;;1.85;;
12435;SDS011;6282;51.440;6.938;2023-06-26T10:08:54;2.70;;;1.67;;
12435;SDS011;6282;51.440;6.938;2023-06-26T10:11:23;2.95;;;1.85;;
12435;SDS011;6282;51.440;6.938;2023-06-26T10:13:54;3.58;;;1.80;;
12435;SDS011;6282;51.440;6.938;2023-06-26T10:16:25;3.75;;;1.80;;
12435;SDS011;6282;51.440;6.938;2023-06-26T10:18:56;6.45;;;2.30;;
12435;SDS011;6282;51.440;6.938;2023-06-26T10:21:25;5.30;;;1.90;;
12435;SDS011;6282;51.440;6.938;2023-06-26T10:23:55;2.33;;;1.60;;
12435;SDS011;6282;51.440;6.938;2023-06-26T10:26:23;2.08;;;1.88;;
12435;SDS011;6282;51.440;6.938;2023-06-26T10:28:52;4.03;;;1.98;;
12435;SDS011;6282;51.440;6.938;2023-06-26T10:31:21;3.25;;;1.80;;
12435;SDS011;6282;51.440;6.938;2023-06-26T10:33:52;4.45;;;1.80;;
12435;SDS011;6282;51.440;6.938;2023-06-26T10:36:19;4.60;;;2.00;;
12435;SDS011;6282;51.440;6.938;2023-06-26T10:38:54;3.35;;;1.83;;
12435;SDS011;6282;51.440;6.938;2023-06-26T10:41:22;3.30;;;1.42;;
12435;SDS011;6282;51.440;6.938;2023-06-26T10:43:50;2.85;;;1.65;;
12435;SDS011;6282;51.440;6.938;2023-06-26T10:46:18;4.13;;;1.80;;
12435;SDS011;6282;51.440;6.938;2023-06-26T10:48:59;2.45;;;1.58;;
12435;SDS011;6282;51.440;6.938;2023-06-26T10:51:27;2.08;;;1.70;;
12435;SDS011;6282;51.440;6.938;2023-06-26T10:53:54;3.95;;;1.95;;
12435;SDS011;6282;51.440;6.938;2023-06-26T10:56:21;2.53;;;1.52;;
12435;SDS011;6282;51.440;6.938;2023-06-26T10:59:14;4.25;;;1.77;;
12435;SDS011;6282;51.440;6.938;2023-06-26T11:01:42;4.43;;;2.13;;
12435;SDS011;6282;51.440;6.938;2023-06-26T11:04:12;4.20;;;1.70;;
12435;SDS011;6282;51.440;6.938;2023-06-26T11:06:41;2.53;;;1.90;;
12435;SDS011;6282;51.440;6.938;2023-06-26T11:09:14;2.75;;;1.85;;
12435;SDS011;6282;51.440;6.938;2023-06-26T11:11:59;3.13;;;2.05;;
12435;SDS011;6282;51.440;6.938;2023-06-26T11:14:32;3.05;;;1.60;;
12435;SDS011;6282;51.440;6.938;2023-06-26T11:17:01;1.83;;;1.55;;
12435;SDS011;6282;51.440;6.938;2023-06-26T11:19:30;3.90;;;1.60;;
12435;SDS011;6282;51.440;6.938;2023-06-26T11:21:58;1.50;;;1.13;;
12435;SDS011;6282;51.440;6.938;2023-06-26T11:24:27;3.00;;;1.40;;
12435;SDS011;6282;51.440;6.938;2023-06-26T11:26:56;1.90;;;1.25;;
12435;SDS011;6282;51.440;6.938;2023-06-26T11:29:27;1.42;;;1.25;;
12435;SDS011;6282;51.440;6.938;2023-06-26T11:31:58;2.88;;;1.10;;
12435;SDS011;6282;51.440;6.938;2023-06-26T11:34:28;1.35;;;1.25;;
12435;SDS011;6282;51.440;6.938;2023-06-26T11:36:57;2.55;;;1.30;;
12435;SDS011;6282;51.440;6.938;2023-06-26T11:39:26;1.98;;;1.40;;
12435;SDS011;6282;51.440;6.938;2023-06-26T11:41:53;2.05;;;1.50;;
12435;SDS011;6282;51.440;6.938;2023-06-26T11:44:20;2.10;;;1.15;;
12435;SDS011;6282;51.440;6.938;2023-06-26T11:46:50;2.15;;;1.30;;
12435;SDS011;6282;51.440;6.938;2023-06-26T11:49:20;1.67;;;1.15;;
12435;SDS011;6282;51.440;6.938;2023-06-26T11:51:51;1.38;;;0.95;;
12435;SDS011;6282;51.440;6.938;2023-06-26T11:54:26;2.65;;;0.82;;
12435;SDS011;6282;51.440;6.938;2023-06-26T11:56:54;1.95;;;1.00;;
12435;SDS011;6282;51.440;6.938;2023-06-26T11:59:26;2.28;;;1.00;;
12435;SDS011;6282;51.440;6.938;2023-06-26T12:02:00;1.38;;;1.00;;
12435;SDS011;6282;51.440;6.938;2023-06-26T12:04:31;1.50;;;0.82;;
12435;SDS011;6282;51.440;6.938;2023-06-26T12:07:00;1.55;;;1.05;;
12435;SDS011;6282;51.440;6.938;2023-06-26T12:09:29;1.95;;;0.90;;
12435;SDS011;6282;51.440;6.938;2023-06-26T12:11:59;2.25;;;1.20;;
12435;SDS011;6282;51.440;6.938;2023-06-26T12:14:26;1.17;;;0.85;;
12435;SDS011;6282;51.440;6.938;2023-06-26T12:16:54;1.25;;;0.90;;
12435;SDS011;6282;51.440;6.938;2023-06-26T12:19:24;2.50;;;1.05;;
12435;SDS011;6282;51.440;6.938;2023-06-26T12:21:52;1.13;;;0.82;;
12435;SDS011;6282;51.440;6.938;2023-06-26T12:24:22;1.27;;;0.80;;
12435;SDS011;6282;51.440;6.938;2023-06-26T12:26:52;1.95;;;0.80;;
12435;SDS011;6282;51.440;6.938;2023-06-26T12:29:22;1.08;;;0.70;;
12435;SDS011;6282;51.440;6.938;2023-06-26T12:31:57;2.08;;;0.65;;
12435;SDS011;6282;51.440;6.938;2023-06-26T12:34:26;1.23;;;0.90;;
12435;SDS011;6282;51.440;6.938;2023-06-26T12:36:58;2.03;;;0.90;;
12435;SDS011;6282;51.440;6.938;2023-06-26T12:39:27;1.45;;;0.90;;
12435;SDS011;6282;51.440;6.938;2023-06-26T12:41:55;1.15;;;0.70;;
12435;SDS011;6282;51.440;6.938;2023-06-26T12:44:25;2.35;;;0.80;;
12435;SDS011;6282;51.440;6.938;2023-06-26T12:46:56;0.98;;;0.70;;
12435;SDS011;6282;51.440;6.938;2023-06-26T12:49:31;0.68;;;0.68;;
12435;SDS011;6282;51.440;6.938;2023-06-26T12:51:59;0.55;;;0.55;;
12435;SDS011;6282;51.440;6.938;2023-06-26T12:54:30;2.88;;;0.90;;
12435;SDS011;6282;51.440;6.938;2023-06-26T12:56:57;1.20;;;1.10;;
12435;SDS011;6282;51.440;6.938;2023-06-26T12:59:24;0.77;;;0.70;;
12435;SDS011;6282;51.440;6.938;2023-06-26T13:01:51;0.90;;;0.73;;
12435;SDS011;6282;51.440;6.938;2023-06-26T13:04:19;1.02;;;0.80;;
12435;SDS011;6282;51.440;6.938;2023-06-26T13:06:46;2.00;;;1.00;;
12435;SDS011;6282;51.440;6.938;2023-06-26T13:09:12;1.00;;;0.90;;
12435;SDS011;6282;51.440;6.938;2023-06-26T13:11:41;1.27;;;0.70;;
12435;SDS011;6282;51.440;6.938;2023-06-26T13:14:08;2.53;;;0.85;;
12435;SDS011;6282;51.440;6.938;2023-06-26T13:16:35;0.85;;;0.70;;
12435;SDS011;6282;51.440;6.938;2023-06-26T13:19:02;0.55;;;0.52;;
12435;SDS011;6282;51.440;6.938;2023-06-26T13:21:29;2.17;;;0.77;;
12435;SDS011;6282;51.440;6.938;2023-06-26T13:23:56;0.80;;;0.80;;
12435;SDS011;6282;51.440;6.938;2023-06-26T13:26:25;1.67;;;0.63;;
12435;SDS011;6282;51.440;6.938;2023-06-26T13:28:55;1.60;;;0.80;;
12435;SDS011;6282;51.440;6.938;2023-06-26T13:31:22;2.63;;;1.02;;
12435;SDS011;6282;51.440;6.938;2023-06-26T13:33:49;3.58;;;1.08;;
12435;SDS011;6282;51.440;6.938;2023-06-26T13:36:17;1.02;;;0.90;;
12435;SDS011;6282;51.440;6.938;2023-06-26T13:38:44;1.50;;;0.80;;
12435;SDS011;6282;51.440;6.938;2023-06-26T13:41:13;1.00;;;0.80;;
12435;SDS011;6282;51.440;6.938;2023-06-26T13:43:40;1.75;;;1.00;;
12435;SDS011;6282;51.440;6.938;2023-06-26T13:46:08;1.92;;;0.82;;
12435;SDS011;6282;51.440;6.938;2023-06-26T13:48:35;1.00;;;0.80;;
12435;SDS011;6282;51.440;6.938;2023-06-26T13:51:01;1.13;;;0.80;;
12435;SDS011;6282;51.440;6.938;2023-06-26T13:53:29;0.68;;;0.55;;
12435;SDS011;6282;51.440;6.938;2023-06-26T13:55:56;0.68;;;0.63;;
12435;SDS011;6282;51.440;6.938;2023-06-26T13:58:23;1.02;;;0.88;;
12435;SDS011;6282;51.440;6.938;2023-06-26T14:00:51;0.90;;;0.90;;
12435;SDS011;6282;51.440;6.938;2023-06-26T14:03:20;1.20;;;0.80;;
12435;SDS011;6282;51.440;6.938;2023-06-26T14:05:47;2.05;;;0.90;;
12435;SDS011;6282;51.440;6.938;2023-06-26T14:08:14;1.65;;;1.10;;
12435;SDS011;6282;51.440;6.938;2023-06-26T14:10:41;2.25;;;0.80;;
12435;SDS011;6282;51.440;6.938;2023-06-26T14:13:08;1.05;;;0.60;;
12435;SDS011;6282;51.440;6.938;2023-06-26T14:15:37;0.80;;;0.80;;
12435;SDS011;6282;51.440;6.938;2023-06-26T14:18:05;1.00;;;0.90;;
12435;SDS011;6282;51.440;6.938;2023-06-26T14:20:33;1.15;;;0.70;;
12435;SDS011;6282;51.440;6.938;2023-06-26T14:23:01;1.77;;;0.80;;
12435;SDS011;6282;51.440;6.938;2023-06-26T14:25:28;0.70;;;0.70;;
12435;SDS011;6282;51.440;6.938;2023-06-26T14:27:55;0.73;;;0.73;;
12435;SDS011;6282;51.440;6.938;2023-06-26T14:30:23;1.95;;;0.68;;
12435;SDS011;6282;51.440;6.938;2023-06-26T14:32:50;1.48;;;0.98;;
12435;SDS011;6282;51.440;6.938;2023-06-26T14:35:17;1.75;;;0.88;;
12435;SDS011;6282;51.440;6.938;2023-06-26T14:37:45;1.02;;;0.75;;
12435;SDS011;6282;51.440;6.938;2023-06-26T14:40:13;0.82;;;0.82;;
12435;SDS011;6282;51.440;6.938;2023-06-26T14:42:40;0.75;;;0.63;;
12435;SDS011;6282;51.440;6.938;2023-06-26T14:45:08;1.80;;;1.00;;
12435;SDS011;6282;51.440;6.938;2023-06-26T14:47:38;1.05;;;0.70;;
12435;SDS011;6282;51.440;6.938;2023-06-26T14:50:05;1.00;;;0.88;;
12435;SDS011;6282;51.440;6.938;2023-06-26T14:52:32;0.90;;;0.80;;
12435;SDS011;6282;51.440;6.938;2023-06-26T14:55:01;2.92;;;0.80;;
12435;SDS011;6282;51.440;6.938;2023-06-26T14:57:28;0.82;;;0.80;;
12435;SDS011;6282;51.440;6.938;2023-06-26T14:59:55;1.35;;;0.70;;
12435;SDS011;6282;51.440;6.938;2023-06-26T15:02:22;0.60;;;0.60;;
12435;SDS011;6282;51.440;6.938;2023-06-26T15:04:49;0.75;;;0.65;;
12435;SDS011;6282;51.440;6.938;2023-06-26T15:07:16;1.20;;;0.90;;
12435;SDS011;6282;51.440;6.938;2023-06-26T15:09:43;1.48;;;0.98;;